createdAt,value
2019-05-26T00:00:51.425Z,17.23
2019-05-26T00:01:51.310Z,17.20
2019-05-26T00:02:51.362Z,17.23
2019-05-26T00:03:51.306Z,17.23
2019-05-26T00:04:51.187Z,17.26
2019-05-26T00:05:51.188Z,17.23
2019-05-26T00:06:51.079Z,17.25
2019-05-26T00:07:51.066Z,17.18
2019-05-26T00:08:50.952Z,17.20
2019-05-26T00:09:50.948Z,17.17
2019-05-26T00:10:50.833Z,17.14
2019-05-26T00:11:50.829Z,17.18
2019-05-26T00:12:50.829Z,17.13
2019-05-26T00:13:50.712Z,17.13
2019-05-26T00:14:50.711Z,17.14
2019-05-26T00:15:50.597Z,17.13
2019-05-26T00:16:50.594Z,17.13
2019-05-26T00:17:50.475Z,17.17
2019-05-26T00:18:50.472Z,17.18
2019-05-26T00:19:50.475Z,17.17
2019-05-26T00:20:50.356Z,17.14
2019-05-26T00:21:50.359Z,17.14
2019-05-26T00:22:50.238Z,17.07
2019-05-26T00:23:50.234Z,17.18
2019-05-26T00:24:50.121Z,17.13
2019-05-26T00:25:50.118Z,17.08
2019-05-26T00:26:50.000Z,17.08
2019-05-26T00:27:50.000Z,17.18
2019-05-26T00:28:49.997Z,17.14
2019-05-26T00:29:49.880Z,17.06
2019-05-26T00:30:49.879Z,17.07
2019-05-26T00:31:49.762Z,16.98
2019-05-26T00:32:49.764Z,17.07
2019-05-26T00:33:49.643Z,16.99
2019-05-26T00:34:49.641Z,17.04
2019-05-26T00:35:49.525Z,17.03
2019-05-26T00:36:49.522Z,17.03
2019-05-26T00:37:50.549Z,17.03
2019-05-26T00:38:49.404Z,16.98
2019-05-26T00:39:49.406Z,16.98
2019-05-26T00:40:49.289Z,17.04
2019-05-26T00:41:49.303Z,16.98
2019-05-26T00:42:49.168Z,16.99
2019-05-26T00:43:49.165Z,16.96
2019-05-26T00:44:49.049Z,16.99
2019-05-26T00:45:49.046Z,16.96
2019-05-26T00:46:49.046Z,17.00
2019-05-26T00:47:48.928Z,17.00
2019-05-26T00:48:48.928Z,17.06
2019-05-26T00:49:48.812Z,16.95
2019-05-26T00:50:48.808Z,17.00
2019-05-26T00:51:48.692Z,16.93
2019-05-26T00:52:48.699Z,16.99
2019-05-26T00:53:48.574Z,16.99
2019-05-26T00:54:48.570Z,16.86
2019-05-26T00:55:48.570Z,16.99
2019-05-26T00:56:48.454Z,16.89
2019-05-26T00:57:48.457Z,16.96
2019-05-26T00:58:48.336Z,16.95
2019-05-26T00:59:48.332Z,16.98
2019-05-26T01:00:48.216Z,16.96
2019-05-26T01:01:48.216Z,16.96
2019-05-26T01:02:48.097Z,16.96
2019-05-26T01:03:48.096Z,16.86
2019-05-26T01:04:48.102Z,16.96
2019-05-26T01:05:47.978Z,16.92
2019-05-26T01:06:47.976Z,16.88
2019-05-26T01:08:04.953Z,16.93
2019-05-26T01:08:47.860Z,16.85
2019-05-26T01:09:47.740Z,16.88
2019-05-26T01:10:47.737Z,16.85
2019-05-26T01:11:47.622Z,16.92
2019-05-26T01:12:47.620Z,16.90
2019-05-26T01:13:47.620Z,16.90
2019-05-26T01:14:47.506Z,16.85
2019-05-26T01:15:47.503Z,16.77
2019-05-26T01:16:47.384Z,16.80
2019-05-26T01:17:47.383Z,16.88
2019-05-26T01:18:47.270Z,16.78
2019-05-26T01:19:47.261Z,16.89
2019-05-26T01:20:47.146Z,16.86
2019-05-26T01:21:47.143Z,16.77
2019-05-26T01:22:47.174Z,16.75
2019-05-26T01:23:47.027Z,16.80
2019-05-26T01:24:47.030Z,16.75
2019-05-26T01:25:46.912Z,16.74
2019-05-26T01:26:46.907Z,16.74
2019-05-26T01:27:46.790Z,16.77
2019-05-26T01:28:46.787Z,16.78
2019-05-26T01:29:46.671Z,16.77
2019-05-26T01:30:46.670Z,16.77
2019-05-26T01:31:46.668Z,16.74
2019-05-26T01:32:46.551Z,16.71
2019-05-26T01:33:46.550Z,16.74
2019-05-26T01:34:46.433Z,16.67
2019-05-26T01:35:46.430Z,16.73
2019-05-26T01:36:46.314Z,16.68
2019-05-26T01:37:46.310Z,16.70
2019-05-26T01:38:46.200Z,16.74
2019-05-26T01:39:46.198Z,16.63
2019-05-26T01:40:46.194Z,16.70
2019-05-26T01:41:46.077Z,16.73
2019-05-26T01:42:46.074Z,16.59
2019-05-26T01:43:45.965Z,16.68
2019-05-26T01:44:45.955Z,16.67
2019-05-26T01:45:45.838Z,16.63
2019-05-26T01:46:45.835Z,16.62
2019-05-26T01:47:45.721Z,16.65
2019-05-26T01:48:45.718Z,16.65
2019-05-26T01:49:45.718Z,16.62
2019-05-26T01:50:45.599Z,16.70
2019-05-26T01:51:45.598Z,16.63
2019-05-26T01:52:45.484Z,16.63
2019-05-26T01:53:45.479Z,16.71
2019-05-26T01:54:45.363Z,16.63
2019-05-26T01:55:45.360Z,16.75
2019-05-26T01:56:45.245Z,16.63
2019-05-26T01:57:45.242Z,16.63
2019-05-26T01:58:45.245Z,16.68
2019-05-26T01:59:45.125Z,16.68
2019-05-26T02:00:45.123Z,16.62
2019-05-26T02:01:45.009Z,16.60
2019-05-26T02:02:45.004Z,16.70
2019-05-26T02:03:44.890Z,16.60
2019-05-26T02:04:44.906Z,16.62
2019-05-26T02:05:44.768Z,16.70
2019-05-26T02:06:44.766Z,16.60
2019-05-26T02:07:44.801Z,16.58
2019-05-26T02:08:44.648Z,16.59
2019-05-26T02:09:44.648Z,16.56
2019-05-26T02:10:44.531Z,16.56
2019-05-26T02:11:44.528Z,16.63
2019-05-26T02:12:44.412Z,16.59
2019-05-26T02:13:44.409Z,16.59
2019-05-26T02:14:44.293Z,16.58
2019-05-26T02:15:44.291Z,16.62
2019-05-26T02:16:44.291Z,16.56
2019-05-26T02:17:44.173Z,16.53
2019-05-26T02:18:44.172Z,16.55
2019-05-26T02:19:44.056Z,16.60
2019-05-26T02:20:44.055Z,16.59
2019-05-26T02:21:43.936Z,16.56
2019-05-26T02:22:43.933Z,16.56
2019-05-26T02:23:43.818Z,16.55
2019-05-26T02:24:43.820Z,16.55
2019-05-26T02:25:43.816Z,16.59
2019-05-26T02:26:43.697Z,16.48
2019-05-26T02:27:43.697Z,16.49
2019-05-26T02:28:43.582Z,16.45
2019-05-26T02:29:43.577Z,16.52
2019-05-26T02:30:43.461Z,16.48
2019-05-26T02:31:43.463Z,16.52
2019-05-26T02:32:43.342Z,16.48
2019-05-26T02:33:43.341Z,16.48
2019-05-26T02:34:43.340Z,16.49
2019-05-26T02:35:43.225Z,16.49
2019-05-26T02:36:43.226Z,16.49
2019-05-26T02:37:43.132Z,16.44
2019-05-26T02:38:59.988Z,16.41
2019-05-26T02:39:42.996Z,16.49
2019-05-26T02:40:42.983Z,16.49
2019-05-26T02:41:42.877Z,16.45
2019-05-26T02:42:42.863Z,16.48
2019-05-26T02:43:42.869Z,16.49
2019-05-26T02:44:42.747Z,16.50
2019-05-26T02:45:42.746Z,16.48
2019-05-26T02:46:42.641Z,16.40
2019-05-26T02:47:42.630Z,16.37
2019-05-26T02:48:42.511Z,16.45
2019-05-26T02:49:42.507Z,16.44
2019-05-26T02:50:42.391Z,16.35
2019-05-26T02:51:42.391Z,16.45
2019-05-26T02:52:42.277Z,16.38
2019-05-26T02:53:42.269Z,16.44
2019-05-26T02:54:42.269Z,16.38
2019-05-26T02:55:42.152Z,16.44
2019-05-26T02:56:42.151Z,16.42
2019-05-26T02:57:42.038Z,16.30
2019-05-26T02:58:42.033Z,16.40
2019-05-26T02:59:41.915Z,16.31
2019-05-26T03:00:41.940Z,16.30
2019-05-26T03:02:01.511Z,16.30
2019-05-26T03:02:41.794Z,16.34
2019-05-26T03:03:41.795Z,16.38
2019-05-26T03:04:41.675Z,16.37
2019-05-26T03:05:41.676Z,16.30
2019-05-26T03:06:41.558Z,16.35
2019-05-26T03:07:41.555Z,16.30
2019-05-26T03:08:41.439Z,16.37
2019-05-26T03:09:41.437Z,16.31
2019-05-26T03:10:41.320Z,16.40
2019-05-26T03:11:41.317Z,16.26
2019-05-26T03:12:41.318Z,16.30
2019-05-26T03:13:41.201Z,16.26
2019-05-26T03:14:41.199Z,16.27
2019-05-26T03:15:41.081Z,16.34
2019-05-26T03:16:41.079Z,16.23
2019-05-26T03:17:40.964Z,16.23
2019-05-26T03:18:40.971Z,16.27
2019-05-26T03:19:40.849Z,16.16
2019-05-26T03:20:40.848Z,16.26
2019-05-26T03:21:40.846Z,16.26
2019-05-26T03:22:40.724Z,16.23
2019-05-26T03:23:40.723Z,16.14
2019-05-26T03:24:40.606Z,16.12
2019-05-26T03:25:40.603Z,16.14
2019-05-26T03:26:40.488Z,16.16
2019-05-26T03:27:40.487Z,16.16
2019-05-26T03:28:40.368Z,16.22
2019-05-26T03:29:40.368Z,16.14
2019-05-26T03:30:40.264Z,16.20
2019-05-26T03:31:40.248Z,16.22
2019-05-26T03:32:40.295Z,16.18
2019-05-26T03:33:40.153Z,16.22
2019-05-26T03:34:40.133Z,16.20
2019-05-26T03:35:40.040Z,16.15
2019-05-26T03:36:40.011Z,16.26
2019-05-26T03:37:39.901Z,16.23
2019-05-26T03:38:39.892Z,16.16
2019-05-26T03:39:45.105Z,16.20
2019-05-26T03:40:39.775Z,16.23
2019-05-26T03:41:39.772Z,16.23
2019-05-26T03:42:39.686Z,16.16
2019-05-26T03:43:39.654Z,16.16
2019-05-26T03:44:39.553Z,16.18
2019-05-26T03:45:39.534Z,16.22
2019-05-26T03:46:39.420Z,16.18
2019-05-26T03:47:39.416Z,16.18
2019-05-26T03:48:39.309Z,16.18
2019-05-26T03:49:39.297Z,16.15
2019-05-26T03:50:39.190Z,16.11
2019-05-26T03:51:39.184Z,16.15
2019-05-26T03:52:39.179Z,16.12
2019-05-26T03:53:39.060Z,16.15
2019-05-26T03:54:39.061Z,16.14
2019-05-26T03:55:38.947Z,16.15
2019-05-26T03:56:38.940Z,16.16
2019-05-26T03:57:38.823Z,16.07
2019-05-26T03:58:38.822Z,16.12
2019-05-26T03:59:38.707Z,16.12
2019-05-26T04:00:38.709Z,16.15
2019-05-26T04:01:38.705Z,16.11
2019-05-26T04:02:38.585Z,16.12
2019-05-26T04:03:38.587Z,16.09
2019-05-26T04:04:38.467Z,16.11
2019-05-26T04:05:38.465Z,16.11
2019-05-26T04:06:38.348Z,16.11
2019-05-26T04:07:38.346Z,16.14
2019-05-26T04:08:38.231Z,16.11
2019-05-26T04:09:38.227Z,16.12
2019-05-26T04:10:38.228Z,16.07
2019-05-26T04:11:38.115Z,16.09
2019-05-26T04:12:38.110Z,16.11
2019-05-26T04:13:38.008Z,16.09
2019-05-26T04:14:37.989Z,16.09
2019-05-26T04:15:37.874Z,16.11
2019-05-26T04:16:37.870Z,16.11
2019-05-26T04:17:37.754Z,16.11
2019-05-26T04:18:37.751Z,16.09
2019-05-26T04:19:37.635Z,16.09
2019-05-26T04:20:37.633Z,16.07
2019-05-26T04:21:37.635Z,16.11
2019-05-26T04:22:37.517Z,16.11
2019-05-26T04:23:37.521Z,16.06
2019-05-26T04:24:37.397Z,16.04
2019-05-26T04:25:37.394Z,16.12
2019-05-26T04:26:37.277Z,16.09
2019-05-26T04:27:37.277Z,16.03
2019-05-26T04:28:37.160Z,16.07
2019-05-26T04:29:37.159Z,16.09
2019-05-26T04:30:37.160Z,16.04
2019-05-26T04:31:37.038Z,16.09
2019-05-26T04:32:37.041Z,16.03
2019-05-26T04:33:36.921Z,16.00
2019-05-26T04:34:36.917Z,16.07
2019-05-26T04:35:36.817Z,16.01
2019-05-26T04:36:36.799Z,16.09
2019-05-26T04:37:36.686Z,16.06
2019-05-26T04:38:36.680Z,16.09
2019-05-26T04:39:36.570Z,16.09
2019-05-26T04:40:36.562Z,16.11
2019-05-26T04:41:36.579Z,16.01
2019-05-26T04:42:36.445Z,16.03
2019-05-26T04:43:36.447Z,16.07
2019-05-26T04:44:36.328Z,16.06
2019-05-26T04:45:36.327Z,15.96
2019-05-26T04:46:36.208Z,15.94
2019-05-26T04:47:36.205Z,15.94
2019-05-26T04:48:36.109Z,16.11
2019-05-26T04:49:37.581Z,15.94
2019-05-26T04:50:35.983Z,15.99
2019-05-26T04:51:35.971Z,15.96
2019-05-26T04:52:35.972Z,16.07
2019-05-26T04:53:35.866Z,15.97
2019-05-26T04:54:35.848Z,16.07
2019-05-26T04:55:35.732Z,16.01
2019-05-26T04:56:35.730Z,16.06
2019-05-26T04:57:35.625Z,16.04
2019-05-26T04:58:35.613Z,16.00
2019-05-26T04:59:35.493Z,15.94
2019-05-26T05:00:35.503Z,15.92
2019-05-26T05:01:35.491Z,15.94
2019-05-26T05:02:35.373Z,15.99
2019-05-26T05:03:35.372Z,16.06
2019-05-26T05:04:35.256Z,15.93
2019-05-26T05:05:35.254Z,16.04
2019-05-26T05:06:35.142Z,16.00
2019-05-26T05:07:35.134Z,16.00
2019-05-26T05:08:35.039Z,15.97
2019-05-26T05:09:35.015Z,16.01
2019-05-26T05:10:42.454Z,15.99
2019-05-26T05:11:34.900Z,15.94
2019-05-26T05:12:34.917Z,15.92
2019-05-26T05:13:34.782Z,16.00
2019-05-26T05:14:34.778Z,16.00
2019-05-26T05:15:34.673Z,16.00
2019-05-26T05:16:34.660Z,15.92
2019-05-26T05:17:34.542Z,16.00
2019-05-26T05:18:34.541Z,16.00
2019-05-26T05:19:34.423Z,15.93
2019-05-26T05:20:34.421Z,15.97
2019-05-26T05:21:34.423Z,15.97
2019-05-26T05:22:34.302Z,15.97
2019-05-26T05:23:34.301Z,16.01
2019-05-26T05:24:34.188Z,16.00
2019-05-26T05:25:34.183Z,16.01
2019-05-26T05:26:34.067Z,15.99
2019-05-26T05:27:34.063Z,15.97
2019-05-26T05:28:33.953Z,16.00
2019-05-26T05:29:33.944Z,15.97
2019-05-26T05:30:33.829Z,16.00
2019-05-26T05:31:33.826Z,16.03
2019-05-26T05:32:33.843Z,16.09
2019-05-26T05:33:33.707Z,15.92
2019-05-26T05:34:33.721Z,15.93
2019-05-26T05:35:33.590Z,16.07
2019-05-26T05:36:33.588Z,15.99
2019-05-26T05:37:33.473Z,16.03
2019-05-26T05:38:33.470Z,15.93
2019-05-26T05:39:33.364Z,15.99
2019-05-26T05:40:33.350Z,15.96
2019-05-26T05:41:33.234Z,15.99
2019-05-26T05:42:33.231Z,15.97
2019-05-26T05:43:33.237Z,16.11
2019-05-26T05:44:33.117Z,16.07
2019-05-26T05:45:33.113Z,15.97
2019-05-26T05:46:32.996Z,15.94
2019-05-26T05:47:32.994Z,15.96
2019-05-26T05:48:32.877Z,15.99
2019-05-26T05:49:32.882Z,16.03
2019-05-26T05:50:32.760Z,16.11
2019-05-26T05:51:32.760Z,16.09
2019-05-26T05:52:32.757Z,16.07
2019-05-26T05:53:32.639Z,16.09
2019-05-26T05:54:32.637Z,16.11
2019-05-26T05:55:32.594Z,16.01
2019-05-26T05:56:32.519Z,16.00
2019-05-26T05:57:32.403Z,16.12
2019-05-26T05:58:32.400Z,15.99
2019-05-26T05:59:32.282Z,16.09
2019-05-26T06:00:32.281Z,16.04
2019-05-26T06:01:32.165Z,16.09
2019-05-26T06:02:32.162Z,16.04
2019-05-26T06:03:32.162Z,16.04
2019-05-26T06:04:32.044Z,16.07
2019-05-26T06:05:32.043Z,15.97
2019-05-26T06:06:31.926Z,16.09
2019-05-26T06:07:31.925Z,16.06
2019-05-26T06:08:31.808Z,16.07
2019-05-26T06:09:31.805Z,16.04
2019-05-26T06:10:31.688Z,16.11
2019-05-26T06:11:31.685Z,16.11
2019-05-26T06:12:31.687Z,16.11
2019-05-26T06:13:31.570Z,16.07
2019-05-26T06:14:31.574Z,16.14
2019-05-26T06:15:31.451Z,16.11
2019-05-26T06:16:31.448Z,16.15
2019-05-26T06:17:31.331Z,16.06
2019-05-26T06:18:31.333Z,16.03
2019-05-26T06:19:31.213Z,16.09
2019-05-26T06:20:31.218Z,16.09
2019-05-26T06:21:31.095Z,16.11
2019-05-26T06:22:31.090Z,16.15
2019-05-26T06:23:31.092Z,16.16
2019-05-26T06:24:30.973Z,16.04
2019-05-26T06:25:31.100Z,16.07
2019-05-26T06:26:30.858Z,16.06
2019-05-26T06:27:30.858Z,16.09
2019-05-26T06:28:30.744Z,16.06
2019-05-26T06:29:30.735Z,16.09
2019-05-26T06:30:30.618Z,16.12
2019-05-26T06:31:30.616Z,16.12
2019-05-26T06:32:30.500Z,16.14
2019-05-26T06:33:30.502Z,16.11
2019-05-26T06:34:30.496Z,16.09
2019-05-26T06:35:32.640Z,16.11
2019-05-26T06:36:30.379Z,16.16
2019-05-26T06:37:30.263Z,16.20
2019-05-26T06:38:30.263Z,16.09
2019-05-26T06:39:30.141Z,16.14
2019-05-26T06:40:30.141Z,16.14
2019-05-26T06:41:33.784Z,16.16
2019-05-26T06:42:30.021Z,16.18
2019-05-26T06:43:30.027Z,16.22
2019-05-26T06:44:29.903Z,16.16
2019-05-26T06:45:29.902Z,16.23
2019-05-26T06:46:29.785Z,16.18
2019-05-26T06:47:29.804Z,16.16
2019-05-26T06:48:29.669Z,16.22
2019-05-26T06:49:29.664Z,16.18
2019-05-26T06:50:29.549Z,16.22
2019-05-26T06:51:29.545Z,16.16
2019-05-26T06:52:29.428Z,16.22
2019-05-26T06:53:29.426Z,16.15
2019-05-26T06:54:29.448Z,16.15
2019-05-26T06:55:29.309Z,16.18
2019-05-26T06:56:29.310Z,16.15
2019-05-26T06:57:29.191Z,16.20
2019-05-26T06:58:29.188Z,16.18
2019-05-26T06:59:29.072Z,16.23
2019-05-26T07:00:29.070Z,16.20
2019-05-26T07:01:28.953Z,16.23
2019-05-26T07:02:28.953Z,16.12
2019-05-26T07:03:28.951Z,16.27
2019-05-26T07:04:28.837Z,16.25
2019-05-26T07:05:28.844Z,16.30
2019-05-26T07:06:28.718Z,16.20
2019-05-26T07:07:28.714Z,16.22
2019-05-26T07:08:28.596Z,16.31
2019-05-26T07:09:28.594Z,16.33
2019-05-26T07:10:28.483Z,16.34
2019-05-26T07:11:28.474Z,16.34
2019-05-26T07:12:28.358Z,16.30
2019-05-26T07:13:28.357Z,16.35
2019-05-26T07:14:28.356Z,16.33
2019-05-26T07:15:28.238Z,16.35
2019-05-26T07:16:37.402Z,16.27
2019-05-26T07:17:28.120Z,16.27
2019-05-26T07:18:28.121Z,16.40
2019-05-26T07:19:28.059Z,16.27
2019-05-26T07:20:28.000Z,16.31
2019-05-26T07:21:27.883Z,16.31
2019-05-26T07:22:27.883Z,16.34
2019-05-26T07:23:27.766Z,16.38
2019-05-26T07:24:29.467Z,16.33
2019-05-26T07:25:27.763Z,16.34
2019-05-26T07:26:27.714Z,16.31
2019-05-26T07:27:27.643Z,16.27
2019-05-26T07:28:27.525Z,16.31
2019-05-26T07:29:27.525Z,16.33
2019-05-26T07:30:27.409Z,16.34
2019-05-26T07:31:27.408Z,16.31
2019-05-26T07:32:27.288Z,16.37
2019-05-26T07:33:27.286Z,16.30
2019-05-26T07:34:27.287Z,16.41
2019-05-26T07:35:27.167Z,16.38
2019-05-26T07:36:27.169Z,16.40
2019-05-26T07:37:27.050Z,16.35
2019-05-26T07:38:27.048Z,16.38
2019-05-26T07:39:26.933Z,16.48
2019-05-26T07:40:26.930Z,16.50
2019-05-26T07:41:26.817Z,16.48
2019-05-26T07:42:26.810Z,16.48
2019-05-26T07:43:28.220Z,16.48
2019-05-26T07:44:26.694Z,16.45
2019-05-26T07:45:26.692Z,16.44
2019-05-26T07:46:26.576Z,16.49
2019-05-26T07:47:26.573Z,16.45
2019-05-26T07:48:26.467Z,16.42
2019-05-26T07:49:26.457Z,16.41
2019-05-26T07:50:26.338Z,16.49
2019-05-26T07:51:26.336Z,16.50
2019-05-26T07:52:26.221Z,16.48
2019-05-26T07:53:26.215Z,16.48
2019-05-26T07:54:26.276Z,16.52
2019-05-26T07:55:26.101Z,16.53
2019-05-26T07:56:26.098Z,16.50
2019-05-26T07:57:25.980Z,16.55
2019-05-26T07:58:25.978Z,16.55
2019-05-26T07:59:25.862Z,16.53
2019-05-26T08:00:25.858Z,16.56
2019-05-26T08:01:35.199Z,16.59
2019-05-26T08:02:25.740Z,16.52
2019-05-26T08:03:25.628Z,16.55
2019-05-26T08:04:40.384Z,16.55
2019-05-26T08:05:25.622Z,16.56
2019-05-26T08:06:25.503Z,16.59
2019-05-26T08:07:25.503Z,16.56
2019-05-26T08:08:25.420Z,16.56
2019-05-26T08:09:25.383Z,16.67
2019-05-26T08:10:25.268Z,16.55
2019-05-26T08:11:25.264Z,16.58
2019-05-26T08:12:28.384Z,16.71
2019-05-26T08:13:25.145Z,16.70
2019-05-26T08:14:25.154Z,16.70
2019-05-26T08:15:25.029Z,16.59
2019-05-26T08:16:25.026Z,16.68
2019-05-26T08:17:24.914Z,16.70
2019-05-26T08:18:24.909Z,16.65
2019-05-26T08:19:24.792Z,16.67
2019-05-26T08:20:24.788Z,16.63
2019-05-26T08:21:24.674Z,16.63
2019-05-26T08:22:24.669Z,16.63
2019-05-26T08:23:24.560Z,16.68
2019-05-26T08:24:24.568Z,16.59
2019-05-26T08:25:24.552Z,16.67
2019-05-26T08:26:24.433Z,16.74
2019-05-26T08:27:24.432Z,16.68
2019-05-26T08:28:24.315Z,16.77
2019-05-26T08:29:24.312Z,16.71
2019-05-26T08:30:24.196Z,16.63
2019-05-26T08:31:24.194Z,16.71
2019-05-26T08:32:24.077Z,16.75
2019-05-26T08:33:24.075Z,16.68
2019-05-26T08:34:24.076Z,16.70
2019-05-26T08:35:23.961Z,16.71
2019-05-26T08:36:23.957Z,16.73
2019-05-26T08:37:23.839Z,16.74
2019-05-26T08:38:23.837Z,16.73
2019-05-26T08:39:23.721Z,16.77
2019-05-26T08:40:23.718Z,16.77
2019-05-26T08:41:23.604Z,16.78
2019-05-26T08:42:27.362Z,16.77
2019-05-26T08:43:23.600Z,16.74
2019-05-26T08:44:23.483Z,16.83
2019-05-26T08:45:23.483Z,16.73
2019-05-26T08:46:23.364Z,16.81
2019-05-26T08:47:23.368Z,16.80
2019-05-26T08:48:23.250Z,16.86
2019-05-26T08:49:23.243Z,16.83
2019-05-26T08:50:23.126Z,16.77
2019-05-26T08:51:23.124Z,16.83
2019-05-26T08:52:23.007Z,16.88
2019-05-26T08:53:23.009Z,16.77
2019-05-26T08:54:23.004Z,16.77
2019-05-26T08:55:22.888Z,16.74
2019-05-26T08:56:22.886Z,16.88
2019-05-26T08:57:22.775Z,16.88
2019-05-26T08:58:22.767Z,16.92
2019-05-26T08:59:22.652Z,16.81
2019-05-26T09:00:22.735Z,16.88
2019-05-26T09:01:22.532Z,16.89
2019-05-26T09:02:22.530Z,16.90
2019-05-26T09:03:22.531Z,16.95
2019-05-26T09:04:22.411Z,16.93
2019-05-26T09:05:22.413Z,16.88
2019-05-26T09:06:22.297Z,16.96
2019-05-26T09:07:22.291Z,16.96
2019-05-26T09:08:22.177Z,16.96
2019-05-26T09:09:22.173Z,16.96
2019-05-26T09:10:22.066Z,16.95
2019-05-26T09:11:22.056Z,16.96
2019-05-26T09:12:22.056Z,16.96
2019-05-26T09:13:21.939Z,17.04
2019-05-26T09:14:25.377Z,16.99
2019-05-26T09:15:21.818Z,16.99
2019-05-26T09:16:21.816Z,16.93
2019-05-26T09:17:21.707Z,17.06
2019-05-26T09:18:21.699Z,17.03
2019-05-26T09:19:21.600Z,16.98
2019-05-26T09:20:21.577Z,16.96
2019-05-26T09:21:21.462Z,16.98
2019-05-26T09:22:21.461Z,16.99
2019-05-26T09:23:21.461Z,16.98
2019-05-26T09:24:21.341Z,17.00
2019-05-26T09:25:21.349Z,17.00
2019-05-26T09:26:21.223Z,17.00
2019-05-26T09:27:21.221Z,17.06
2019-05-26T09:28:21.106Z,17.11
2019-05-26T09:29:21.102Z,17.03
2019-05-26T09:30:20.986Z,17.07
2019-05-26T09:31:20.988Z,17.06
2019-05-26T09:32:20.984Z,17.10
2019-05-26T09:33:20.865Z,17.17
2019-05-26T09:34:20.869Z,17.15
2019-05-26T09:35:20.748Z,17.11
2019-05-26T09:36:20.746Z,17.14
2019-05-26T09:37:20.630Z,17.06
2019-05-26T09:38:20.627Z,17.10
2019-05-26T09:39:20.511Z,17.13
2019-05-26T09:40:20.510Z,17.15
2019-05-26T09:41:20.508Z,17.10
2019-05-26T09:42:22.437Z,17.11
2019-05-26T09:43:20.389Z,17.14
2019-05-26T09:44:20.272Z,17.18
2019-05-26T09:45:20.270Z,17.18
2019-05-26T09:46:20.153Z,17.15
2019-05-26T09:47:20.156Z,17.20
2019-05-26T09:48:20.035Z,17.20
2019-05-26T09:49:20.035Z,17.17
2019-05-26T09:50:20.033Z,17.20
2019-05-26T09:51:19.914Z,17.22
2019-05-26T09:52:19.932Z,17.20
2019-05-26T09:53:19.797Z,17.22
2019-05-26T09:54:19.796Z,17.26
2019-05-26T09:55:19.681Z,17.18
2019-05-26T09:56:19.676Z,17.20
2019-05-26T09:57:19.560Z,17.26
2019-05-26T09:58:19.557Z,17.23
2019-05-26T09:59:19.440Z,17.29
2019-05-26T10:00:19.439Z,17.25
2019-05-26T10:01:19.439Z,17.29
2019-05-26T10:02:19.324Z,17.29
2019-05-26T10:03:19.319Z,17.26
2019-05-26T10:04:19.203Z,17.28
2019-05-26T10:05:19.199Z,17.30
2019-05-26T10:06:19.083Z,17.35
2019-05-26T10:07:19.084Z,17.35
2019-05-26T10:08:18.966Z,17.30
2019-05-26T10:09:18.962Z,17.33
2019-05-26T10:10:18.963Z,17.35
2019-05-26T10:11:18.845Z,17.29
2019-05-26T10:12:18.844Z,17.38
2019-05-26T10:13:30.800Z,17.32
2019-05-26T10:14:18.725Z,17.41
2019-05-26T10:15:18.612Z,17.36
2019-05-26T10:16:18.609Z,17.32
2019-05-26T10:17:18.489Z,17.30
2019-05-26T10:18:18.486Z,17.35
2019-05-26T10:19:18.489Z,17.36
2019-05-26T10:20:18.370Z,17.40
2019-05-26T10:21:18.368Z,17.43
2019-05-26T10:22:18.251Z,17.33
2019-05-26T10:23:18.250Z,17.47
2019-05-26T10:24:18.132Z,17.43
2019-05-26T10:25:18.132Z,17.47
2019-05-26T10:26:18.014Z,17.44
2019-05-26T10:27:18.011Z,17.53
2019-05-26T10:28:18.018Z,17.47
2019-05-26T10:29:17.893Z,17.47
2019-05-26T10:30:17.892Z,17.46
2019-05-26T10:31:17.778Z,17.57
2019-05-26T10:32:17.773Z,17.57
2019-05-26T10:33:17.658Z,17.57
2019-05-26T10:34:17.658Z,17.53
2019-05-26T10:35:17.538Z,17.54
2019-05-26T10:36:17.536Z,17.55
2019-05-26T10:37:17.546Z,17.55
2019-05-26T10:38:17.417Z,17.55
2019-05-26T10:39:17.418Z,17.63
2019-05-26T10:40:17.300Z,17.62
2019-05-26T10:41:17.298Z,17.63
2019-05-26T10:42:17.181Z,17.62
2019-05-26T10:43:17.179Z,17.71
2019-05-26T10:44:17.062Z,17.67
2019-05-26T10:45:17.062Z,17.74
2019-05-26T10:46:17.060Z,17.66
2019-05-26T10:47:16.942Z,17.67
2019-05-26T10:48:16.944Z,17.70
2019-05-26T10:49:16.824Z,17.69
2019-05-26T10:50:16.827Z,17.66
2019-05-26T10:51:16.705Z,17.73
2019-05-26T10:52:16.703Z,17.73
2019-05-26T10:53:16.586Z,17.67
2019-05-26T10:54:16.584Z,17.70
2019-05-26T10:55:16.585Z,17.66
2019-05-26T10:56:16.483Z,17.78
2019-05-26T10:57:16.466Z,17.74
2019-05-26T10:58:16.352Z,17.76
2019-05-26T10:59:16.346Z,17.78
2019-05-26T11:00:16.230Z,17.78
2019-05-26T11:01:16.227Z,17.74
2019-05-26T11:02:16.112Z,17.76
2019-05-26T11:03:16.131Z,17.73
2019-05-26T11:04:16.110Z,17.78
2019-05-26T11:05:15.996Z,17.76
2019-05-26T11:06:15.990Z,17.81
2019-05-26T11:07:15.874Z,17.79
2019-05-26T11:08:15.871Z,17.78
2019-05-26T11:09:15.755Z,17.84
2019-05-26T11:10:15.769Z,17.78
2019-05-26T11:11:15.635Z,17.82
2019-05-26T11:12:15.634Z,17.79
2019-05-26T11:13:15.641Z,17.79
2019-05-26T11:14:15.515Z,17.85
2019-05-26T11:15:15.514Z,17.78
2019-05-26T11:16:15.398Z,17.85
2019-05-26T11:17:15.395Z,17.87
2019-05-26T11:18:15.314Z,17.84
2019-05-26T11:19:15.277Z,17.82
2019-05-26T11:20:15.165Z,17.84
2019-05-26T11:21:15.158Z,17.85
2019-05-26T11:22:15.158Z,17.85
2019-05-26T11:23:15.041Z,17.87
2019-05-26T11:24:15.039Z,17.87
2019-05-26T11:25:14.923Z,17.87
2019-05-26T11:26:14.919Z,17.87
2019-05-26T11:27:15.188Z,17.87
2019-05-26T11:28:14.801Z,17.91
2019-05-26T11:29:14.687Z,17.89
2019-05-26T11:30:14.682Z,17.88
2019-05-26T11:31:14.683Z,17.89
2019-05-26T11:32:14.566Z,17.88
2019-05-26T11:33:14.562Z,17.94
2019-05-26T11:34:14.470Z,17.82
2019-05-26T11:35:14.444Z,17.91
2019-05-26T11:36:14.332Z,17.84
2019-05-26T11:37:14.325Z,17.87
2019-05-26T11:38:14.209Z,17.87
2019-05-26T11:39:14.217Z,18.00
2019-05-26T11:40:14.207Z,18.02
2019-05-26T11:41:14.092Z,17.94
2019-05-26T11:42:14.314Z,17.92
2019-05-26T11:43:16.922Z,17.99
2019-05-26T11:44:17.977Z,18.00
2019-05-26T11:45:13.851Z,18.00
2019-05-26T11:46:16.572Z,18.00
2019-05-26T11:47:13.733Z,17.99
2019-05-26T11:48:13.731Z,18.06
2019-05-26T11:49:13.730Z,18.02
2019-05-26T11:50:13.616Z,17.94
2019-05-26T11:51:13.613Z,17.94
2019-05-26T11:52:13.496Z,18.03
2019-05-26T11:53:13.493Z,18.04
2019-05-26T11:54:13.377Z,18.00
2019-05-26T11:55:13.374Z,18.04
2019-05-26T11:56:13.258Z,18.07
2019-05-26T11:57:13.255Z,18.09
2019-05-26T11:58:13.256Z,18.12
2019-05-26T11:59:13.199Z,18.13
2019-05-26T12:00:13.606Z,18.09
2019-05-26T12:01:13.021Z,18.09
2019-05-26T12:02:13.019Z,18.17
2019-05-26T12:03:12.901Z,18.15
2019-05-26T12:04:12.900Z,18.07
2019-05-26T12:05:12.901Z,18.18
2019-05-26T12:06:12.781Z,18.06
2019-05-26T12:07:12.780Z,18.09
2019-05-26T12:08:12.668Z,18.17
2019-05-26T12:09:12.660Z,18.13
2019-05-26T12:10:14.178Z,18.17
2019-05-26T12:11:12.542Z,18.18
2019-05-26T12:12:12.425Z,18.19
2019-05-26T12:13:12.459Z,18.19
2019-05-26T12:14:12.423Z,18.15
2019-05-26T12:15:12.304Z,18.21
2019-05-26T12:16:12.304Z,18.25
2019-05-26T12:17:12.186Z,18.22
2019-05-26T12:18:12.185Z,18.31
2019-05-26T12:19:12.069Z,18.22
2019-05-26T12:20:12.065Z,18.19
2019-05-26T12:21:11.950Z,18.28
2019-05-26T12:22:11.951Z,18.31
2019-05-26T12:23:11.949Z,18.18
2019-05-26T12:24:11.837Z,18.25
2019-05-26T12:25:11.828Z,18.28
2019-05-26T12:26:11.712Z,18.24
2019-05-26T12:27:11.709Z,18.27
2019-05-26T12:28:11.592Z,18.25
2019-05-26T12:29:11.591Z,18.36
2019-05-26T12:30:11.475Z,18.19
2019-05-26T12:31:11.474Z,18.19
2019-05-26T12:32:11.471Z,18.29
2019-05-26T12:33:11.379Z,18.34
2019-05-26T12:34:11.357Z,18.34
2019-05-26T12:35:11.238Z,18.37
2019-05-26T12:36:11.236Z,18.37
2019-05-26T12:37:11.118Z,18.31
2019-05-26T12:38:11.114Z,18.39
2019-05-26T12:39:11.118Z,18.34
2019-05-26T12:40:10.998Z,18.36
2019-05-26T12:41:10.997Z,18.34
2019-05-26T12:42:10.879Z,18.43
2019-05-26T12:43:10.877Z,18.33
2019-05-26T12:44:11.160Z,18.42
2019-05-26T12:45:10.759Z,18.39
2019-05-26T12:46:10.642Z,18.43
2019-05-26T12:47:10.639Z,18.43
2019-05-26T12:48:10.641Z,18.40
2019-05-26T12:49:10.521Z,18.43
2019-05-26T12:50:10.522Z,18.40
2019-05-26T12:51:10.405Z,18.44
2019-05-26T12:52:10.402Z,18.42